createdAt,value
2022-12-29T00:02:12.799Z,7.50
2022-12-29T00:05:57.755Z,7.00
2022-12-29T00:09:21.740Z,12.00
2022-12-29T00:13:17.917Z,11.30
2022-12-29T00:17:01.241Z,9.40
2022-12-29T00:21:02.675Z,10.90
2022-12-29T00:25:09.283Z,7.50
2022-12-29T00:28:51.628Z,16.00
2022-12-29T00:32:44.762Z,7.00
2022-12-29T00:36:34.929Z,6.50
2022-12-29T00:40:36.107Z,11.10
2022-12-29T00:44:06.421Z,6.70
2022-12-29T00:47:37.472Z,7.50
2022-12-29T00:51:15.192Z,5.40
2022-12-29T00:55:12.064Z,4.30
2022-12-29T00:59:01.528Z,4.10
2022-12-29T01:02:44.293Z,4.20
2022-12-29T01:06:10.407Z,3.90
2022-12-29T01:10:04.254Z,3.70
2022-12-29T01:13:28.516Z,4.00
2022-12-29T01:17:25.074Z,5.20
2022-12-29T01:20:48.328Z,5.20
2022-12-29T01:24:27.366Z,5.60
2022-12-29T01:28:04.033Z,5.90
2022-12-29T01:31:41.434Z,4.90
2022-12-29T01:35:38.029Z,4.70
2022-12-29T01:39:01.410Z,4.30
2022-12-29T01:42:39.403Z,4.30
2022-12-29T01:46:25.975Z,5.20
2022-12-29T01:49:58.787Z,4.30
2022-12-29T01:53:36.190Z,4.60
2022-12-29T01:57:15.479Z,4.80
2022-12-29T02:01:06.731Z,4.40
2022-12-29T02:04:34.531Z,4.10
2022-12-29T02:08:12.357Z,4.90
2022-12-29T02:11:48.404Z,4.40
2022-12-29T02:15:50.853Z,3.60
2022-12-29T02:19:58.463Z,4.40
2022-12-29T02:23:57.125Z,5.00
2022-12-29T02:27:46.376Z,5.80
2022-12-29T02:31:45.506Z,5.60
2022-12-29T02:35:22.154Z,5.60
2022-12-29T02:39:10.535Z,4.70
2022-12-29T02:43:33.763Z,4.50
2022-12-29T02:47:05.988Z,4.80
2022-12-29T02:50:40.640Z,5.30
2022-12-29T02:54:41.829Z,6.00
2022-12-29T02:58:09.509Z,4.50
2022-12-29T03:02:32.182Z,5.60
2022-12-29T03:06:10.156Z,5.30
2022-12-29T03:10:08.030Z,5.00
2022-12-29T03:14:02.185Z,4.10
2022-12-29T03:17:32.897Z,3.60
2022-12-29T03:21:58.909Z,3.80
2022-12-29T03:25:36.821Z,3.50
2022-12-29T03:29:21.620Z,3.70
2022-12-29T03:33:12.554Z,3.80
2022-12-29T03:37:10.196Z,4.20
2022-12-29T03:40:35.410Z,4.20
2022-12-29T03:44:36.796Z,3.60
2022-12-29T03:48:00.226Z,3.70
2022-12-29T03:51:38.095Z,2.80
2022-12-29T03:55:15.629Z,3.90
2022-12-29T03:58:53.426Z,4.30
2022-12-29T04:02:57.204Z,3.70
2022-12-29T04:06:20.537Z,4.00
2022-12-29T04:09:58.224Z,3.30
2022-12-29T04:13:35.964Z,4.40
2022-12-29T04:17:13.566Z,4.30
2022-12-29T04:21:10.442Z,4.30
2022-12-29T04:24:36.955Z,4.10
2022-12-29T04:28:33.907Z,3.60
2022-12-29T04:32:16.627Z,3.40
2022-12-29T04:35:55.030Z,3.70
2022-12-29T04:39:32.056Z,3.50
2022-12-29T04:43:10.963Z,3.60
2022-12-29T04:46:58.145Z,3.70
2022-12-29T04:50:40.885Z,3.70
2022-12-29T04:54:16.990Z,4.10
2022-12-29T04:58:18.964Z,3.10
2022-12-29T05:01:46.607Z,3.50
2022-12-29T05:05:24.602Z,3.40
2022-12-29T05:09:01.813Z,3.70
2022-12-29T05:12:40.176Z,4.40
2022-12-29T05:16:17.220Z,4.40
2022-12-29T05:19:55.244Z,3.80
2022-12-29T05:23:32.592Z,2.90
2022-12-29T05:27:10.190Z,3.70
2022-12-29T05:30:55.981Z,4.00
2022-12-29T05:34:34.166Z,3.80
2022-12-29T05:38:11.548Z,3.50
2022-12-29T05:42:08.234Z,4.10
2022-12-29T05:46:05.536Z,4.20
2022-12-29T05:49:56.274Z,3.90
2022-12-29T05:53:49.227Z,4.00
2022-12-29T05:57:27.155Z,4.60
2022-12-29T06:01:23.352Z,3.00
2022-12-29T06:05:05.726Z,4.60
2022-12-29T06:08:48.764Z,4.60
2022-12-29T06:12:12.726Z,6.50
2022-12-29T06:16:09.399Z,10.80
2022-12-29T06:19:34.646Z,6.90
2022-12-29T06:23:14.229Z,8.60
2022-12-29T06:26:49.843Z,8.60
2022-12-29T06:30:47.316Z,8.40
2022-12-29T06:34:11.104Z,10.50
2022-12-29T06:37:48.604Z,15.80
2022-12-29T06:41:31.994Z,8.50
2022-12-29T06:45:31.159Z,8.20
2022-12-29T06:48:55.298Z,9.80
2022-12-29T06:52:32.720Z,9.10
2022-12-29T06:56:29.485Z,6.90
2022-12-29T06:59:52.558Z,6.80
2022-12-29T07:03:49.523Z,6.30
2022-12-29T07:07:13.021Z,6.70
2022-12-29T07:11:09.903Z,6.90
2022-12-29T07:14:37.434Z,9.10
2022-12-29T07:18:30.434Z,8.80
2022-12-29T07:21:56.201Z,6.90
2022-12-29T07:25:50.631Z,7.70
2022-12-29T07:29:14.019Z,5.60
2022-12-29T07:32:51.914Z,6.30
2022-12-29T07:36:34.198Z,6.00
2022-12-29T07:40:08.394Z,8.00
2022-12-29T07:43:49.321Z,12.60
2022-12-29T07:48:02.807Z,7.00
2022-12-29T07:51:26.793Z,8.50
2022-12-29T07:55:04.392Z,7.60
2022-12-29T07:58:42.815Z,7.40
2022-12-29T08:02:38.866Z,7.00
2022-12-29T08:06:22.092Z,7.30
2022-12-29T08:10:09.070Z,9.60
2022-12-29T08:13:52.525Z,7.50
2022-12-29T08:17:15.914Z,8.80
2022-12-29T08:21:12.766Z,6.70
2022-12-29T08:24:36.547Z,8.70
2022-12-29T08:28:14.174Z,9.30
2022-12-29T08:32:11.858Z,7.90
2022-12-29T08:36:06.317Z,5.90
2022-12-29T08:39:48.781Z,6.40
2022-12-29T08:43:31.167Z,7.10
2022-12-29T08:46:54.664Z,8.40
2022-12-29T08:50:32.258Z,9.00
2022-12-29T08:54:11.598Z,8.30
2022-12-29T08:58:06.295Z,10.20
2022-12-29T09:01:31.705Z,9.00
2022-12-29T09:05:27.822Z,8.00
2022-12-29T09:08:51.177Z,9.00
2022-12-29T09:12:47.802Z,8.00
2022-12-29T09:16:11.651Z,7.50
2022-12-29T09:20:09.394Z,6.90
2022-12-29T09:23:34.916Z,5.80
2022-12-29T09:27:10.797Z,5.90
2022-12-29T09:30:49.516Z,7.10
2022-12-29T09:34:45.665Z,9.10
2022-12-29T09:38:29.399Z,8.00
2022-12-29T09:42:08.670Z,5.90
2022-12-29T09:45:43.432Z,6.80
2022-12-29T09:49:47.459Z,5.70
2022-12-29T09:53:45.465Z,4.50
2022-12-29T09:57:45.635Z,5.80
2022-12-29T10:01:37.766Z,6.00
2022-12-29T10:05:48.131Z,5.60
2022-12-29T10:09:53.912Z,4.30
2022-12-29T10:13:40.973Z,3.90
2022-12-29T10:17:47.903Z,6.60
2022-12-29T10:21:56.696Z,15.70
2022-12-29T10:25:41.867Z,9.00
2022-12-29T10:29:31.534Z,5.20
2022-12-29T10:33:21.061Z,5.90
2022-12-29T10:36:49.844Z,5.30
2022-12-29T10:40:32.503Z,5.40
2022-12-29T10:44:20.910Z,4.70
2022-12-29T10:48:05.741Z,7.60
2022-12-29T10:51:53.113Z,6.10
2022-12-29T10:55:26.267Z,6.50
2022-12-29T10:59:26.580Z,5.60
2022-12-29T11:03:40.926Z,6.60
2022-12-29T11:07:10.573Z,6.00
2022-12-29T11:11:06.215Z,6.40
2022-12-29T11:14:32.333Z,6.70
2022-12-29T11:18:21.945Z,4.40
2022-12-29T11:22:27.605Z,5.60
2022-12-29T11:26:13.226Z,4.70
2022-12-29T11:29:42.529Z,6.50
2022-12-29T11:33:14.744Z,8.20
2022-12-29T11:37:16.822Z,6.10
2022-12-29T11:40:59.398Z,6.10
2022-12-29T11:44:25.096Z,8.80
2022-12-29T11:48:15.622Z,7.30
2022-12-29T11:52:00.531Z,9.00
2022-12-29T11:55:56.391Z,15.50
2022-12-29T11:59:49.457Z,7.30
2022-12-29T12:03:38.507Z,8.70
2022-12-29T12:07:30.510Z,7.90
2022-12-29T12:11:09.447Z,7.00
2022-12-29T12:14:53.468Z,8.50
2022-12-29T12:19:17.807Z,7.50
2022-12-29T12:23:13.865Z,6.80
2022-12-29T12:27:03.572Z,7.00
2022-12-29T12:30:34.397Z,6.40
2022-12-29T12:34:36.506Z,5.80
2022-12-29T12:38:35.554Z,7.20
2022-12-29T12:42:22.440Z,6.40
2022-12-29T12:46:12.076Z,5.60
2022-12-29T12:49:55.251Z,4.50
2022-12-29T12:53:42.909Z,6.40
2022-12-29T12:57:33.448Z,6.50
2022-12-29T13:01:44.338Z,5.50
2022-12-29T13:06:07.544Z,6.80
2022-12-29T13:09:58.770Z,5.40
2022-12-29T13:14:02.208Z,7.30
2022-12-29T13:17:59.745Z,6.30
2022-12-29T13:21:51.548Z,5.80
2022-12-29T13:25:37.588Z,6.20
2022-12-29T13:29:42.673Z,5.70
2022-12-29T13:33:33.444Z,6.90
2022-12-29T13:37:02.749Z,7.50
2022-12-29T13:40:59.657Z,6.90
2022-12-29T13:44:33.224Z,10.30
2022-12-29T13:48:27.650Z,6.20
2022-12-29T13:51:58.213Z,5.80
2022-12-29T13:55:42.139Z,6.80
2022-12-29T13:59:51.943Z,7.20
2022-12-29T14:03:54.259Z,6.70
2022-12-29T14:07:19.401Z,5.80
2022-12-29T14:10:56.576Z,5.30
2022-12-29T14:14:38.395Z,5.50
2022-12-29T14:18:20.006Z,6.20
2022-12-29T14:22:03.263Z,6.80
2022-12-29T14:26:34.978Z,9.70
2022-12-29T14:29:58.796Z,6.20
2022-12-29T14:33:36.475Z,13.80
2022-12-29T14:37:34.448Z,8.20
2022-12-29T14:41:32.595Z,8.90
2022-12-29T14:45:15.785Z,19.30
2022-12-29T14:49:01.232Z,17.30
2022-12-29T14:52:49.118Z,17.90
2022-12-29T14:56:15.384Z,16.20
2022-12-29T15:00:16.186Z,13.80
2022-12-29T15:03:46.632Z,12.30
2022-12-29T15:07:37.257Z,13.00
2022-12-29T15:11:26.074Z,11.50
2022-12-29T15:15:24.084Z,9.60
2022-12-29T15:18:48.077Z,9.70
2022-12-29T15:22:48.122Z,11.20
2022-12-29T15:26:39.233Z,13.00
2022-12-29T15:30:22.316Z,12.90
2022-12-29T15:34:12.798Z,11.90
2022-12-29T15:37:39.026Z,15.00
2022-12-29T15:42:02.119Z,16.90
2022-12-29T15:45:34.875Z,14.50
2022-12-29T15:49:13.805Z,11.50
2022-12-29T15:53:02.217Z,11.60
2022-12-29T15:56:45.794Z,11.90
2022-12-29T16:00:27.081Z,14.70
2022-12-29T16:03:53.066Z,14.70
2022-12-29T16:07:57.359Z,15.10
2022-12-29T16:11:31.351Z,11.60
2022-12-29T16:15:18.409Z,13.80
2022-12-29T16:18:41.712Z,12.60
2022-12-29T16:22:41.528Z,13.00
2022-12-29T16:26:18.137Z,13.60
2022-12-29T16:29:43.957Z,11.20
2022-12-29T16:33:47.529Z,14.10
2022-12-29T16:37:32.731Z,15.50
2022-12-29T16:40:59.445Z,14.40
2022-12-29T16:44:34.738Z,11.10
2022-12-29T16:48:45.626Z,13.30
2022-12-29T16:52:35.680Z,11.50
2022-12-29T16:56:06.383Z,13.00
2022-12-29T17:00:00.969Z,12.70
2022-12-29T17:03:33.770Z,12.10
2022-12-29T17:07:02.702Z,11.60
2022-12-29T17:10:58.959Z,10.00
2022-12-29T17:14:49.739Z,16.30
2022-12-29T17:18:32.092Z,16.20
2022-12-29T17:22:27.055Z,10.20
2022-12-29T17:25:50.587Z,11.40
2022-12-29T17:29:36.778Z,13.10
2022-12-29T17:33:10.311Z,14.80
2022-12-29T17:36:43.727Z,17.80
2022-12-29T17:40:40.056Z,15.20
2022-12-29T17:44:06.163Z,25.00
2022-12-29T17:47:40.930Z,16.90
2022-12-29T17:51:39.962Z,10.20
2022-12-29T17:55:24.085Z,22.80
2022-12-29T17:59:15.907Z,16.10
2022-12-29T18:02:58.155Z,11.50
2022-12-29T18:06:22.028Z,14.70
2022-12-29T18:10:19.993Z,33.70
2022-12-29T18:13:46.664Z,9.80
2022-12-29T18:17:39.973Z,13.00
2022-12-29T18:21:03.766Z,14.00
2022-12-29T18:24:41.030Z,14.30
2022-12-29T18:28:19.564Z,11.50
2022-12-29T18:32:16.553Z,15.50
2022-12-29T18:35:44.891Z,15.70
2022-12-29T18:39:17.498Z,12.80
2022-12-29T18:42:59.262Z,9.40
2022-12-29T18:46:52.002Z,15.70
2022-12-29T18:50:34.733Z,11.40
2022-12-29T18:53:57.810Z,9.40
2022-12-29T18:57:54.882Z,8.20
2022-12-29T19:01:24.560Z,9.80
2022-12-29T19:05:22.951Z,10.20
2022-12-29T19:08:46.951Z,9.10
2022-12-29T19:12:28.364Z,8.10
2022-12-29T19:16:22.018Z,24.50
2022-12-29T19:19:45.457Z,13.00
2022-12-29T19:23:41.613Z,9.80
2022-12-29T19:27:04.834Z,9.00
2022-12-29T19:30:42.418Z,10.80
2022-12-29T19:34:20.046Z,9.50
2022-12-29T19:38:17.216Z,7.10
2022-12-29T19:41:41.448Z,9.00
2022-12-29T19:45:20.501Z,9.60
2022-12-29T19:48:58.949Z,6.80
2022-12-29T19:52:34.524Z,10.10
2022-12-29T19:56:12.988Z,8.80
2022-12-29T19:59:50.012Z,10.00
2022-12-29T20:03:28.270Z,7.50
2022-12-29T20:07:05.051Z,7.70
2022-12-29T20:11:09.951Z,10.80
2022-12-29T20:14:33.875Z,11.10
2022-12-29T20:18:14.086Z,7.40
2022-12-29T20:21:49.103Z,8.00
2022-12-29T20:25:46.362Z,7.30
2022-12-29T20:29:16.282Z,8.10
2022-12-29T20:32:51.395Z,9.00
2022-12-29T20:36:30.105Z,8.40
2022-12-29T20:40:05.403Z,9.00
2022-12-29T20:44:01.189Z,8.80
2022-12-29T20:47:46.155Z,10.10
2022-12-29T20:51:12.240Z,8.60
2022-12-29T20:54:47.171Z,9.50
2022-12-29T20:58:25.243Z,14.70
2022-12-29T21:02:02.607Z,7.90
2022-12-29T21:06:02.696Z,10.60
2022-12-29T21:09:44.867Z,11.50
2022-12-29T21:13:28.331Z,9.60
2022-12-29T21:16:51.729Z,10.40
2022-12-29T21:20:59.661Z,8.10
2022-12-29T21:24:43.678Z,9.80
2022-12-29T21:28:09.618Z,8.70
2022-12-29T21:32:06.613Z,7.10
2022-12-29T21:35:49.041Z,8.20
2022-12-29T21:39:15.940Z,7.70
2022-12-29T21:42:51.904Z,9.20
2022-12-29T21:46:27.952Z,8.00
2022-12-29T21:50:24.428Z,9.90
2022-12-29T21:54:17.652Z,8.10
2022-12-29T21:58:00.489Z,9.70
2022-12-29T22:02:02.668Z,8.00
2022-12-29T22:05:44.708Z,8.50
2022-12-29T22:09:27.928Z,7.20
2022-12-29T22:12:59.107Z,9.00
2022-12-29T22:16:30.362Z,9.00
2022-12-29T22:20:07.581Z,8.20
2022-12-29T22:23:45.711Z,7.50
2022-12-29T22:27:22.837Z,8.80
2022-12-29T22:31:26.713Z,9.00
2022-12-29T22:35:11.095Z,9.40
2022-12-29T22:38:54.012Z,7.80
2022-12-29T22:42:38.033Z,9.90
2022-12-29T22:46:07.737Z,9.90
2022-12-29T22:49:39.330Z,8.90
2022-12-29T22:53:36.086Z,8.50
2022-12-29T22:57:18.294Z,9.00
2022-12-29T23:01:00.887Z,9.80
2022-12-29T23:05:01.411Z,9.60
2022-12-29T23:08:33.744Z,8.40
2022-12-29T23:11:57.497Z,6.80
2022-12-29T23:15:54.217Z,9.90
2022-12-29T23:19:18.251Z,11.00
2022-12-29T23:22:55.999Z,9.10
2022-12-29T23:26:52.596Z,7.70
2022-12-29T23:30:16.324Z,7.90
2022-12-29T23:33:55.556Z,9.30
2022-12-29T23:37:31.798Z,8.60
2022-12-29T23:41:28.149Z,8.00
2022-12-29T23:45:12.221Z,7.60
2022-12-29T23:48:36.706Z,8.50
2022-12-29T23:52:32.584Z,9.70
2022-12-29T23:56:18.921Z,9.20
2022-12-29T23:59:43.161Z,8.90
